Time;durP1;ratioP1;P1;durP2;ratioP2;P2;SDS_P1;SDS_P2;PMS_P1;PMS_P2;Temp;Humidity;BMP_temperature;BMP_pressure;BME280_temperature;BME280_humidity;BME280_pressure;Samples;Min_cycle;Max_cycle;Signal;HPM_P1;HPM_P2
2023/06/17 00:24:05;;;;;;;9.30;8.30;;;18.30;99.90;;;;;;6183337;23;20445;-76
2023/06/17 00:27:13;;;;;;;8.60;8.00;;;18.20;99.90;;;;;;6185884;23;20410;-76
2023/06/17 00:30:13;;;;;;;8.93;8.03;;;18.20;99.90;;;;;;6186669;23;20425;-76
2023/06/17 00:32:42;;;;;;;8.27;7.57;;;18.10;99.90;;;;;;6183243;23;20776;-75
2023/06/17 00:35:13;;;;;;;8.00;7.30;;;18.00;99.90;;;;;;6185505;23;20425;-76
2023/06/17 00:37:44;;;;;;;8.00;7.40;;;17.90;99.90;;;;;;6187303;23;20923;-76
2023/06/17 00:40:16;;;;;;;9.00;8.10;;;17.80;99.90;;;;;;6186843;23;20513;-75
2023/06/17 00:42:47;;;;;;;8.27;7.63;;;17.80;99.90;;;;;;6187070;23;20466;-75
2023/06/17 00:45:19;;;;;;;9.30;8.37;;;17.80;99.90;;;;;;6187675;23;20427;-74
2023/06/17 00:47:51;;;;;;;10.00;9.07;;;17.70;99.90;;;;;;6186820;23;20493;-75
2023/06/17 00:50:20;;;;;;;8.70;7.90;;;17.70;99.90;;;;;;6188174;23;20402;-77
2023/06/17 00:52:54;;;;;;;9.57;8.73;;;17.70;99.90;;;;;;6197218;23;20436;-77
2023/06/17 00:55:23;;;;;;;9.73;8.77;;;17.70;99.90;;;;;;6196414;23;20382;-75
2023/06/17 00:57:57;;;;;;;9.43;8.37;;;17.70;99.90;;;;;;6198597;23;20442;-75
2023/06/17 01:00:24;;;;;;;9.83;8.60;;;17.70;99.90;;;;;;6196653;23;20414;-76
2023/06/17 01:02:58;;;;;;;8.43;7.70;;;17.70;99.90;;;;;;6198654;23;20558;-75
2023/06/17 01:05:27;;;;;;;10.20;9.20;;;17.60;99.90;;;;;;6197939;23;20410;-76
2023/06/17 01:08:12;;;;;;;9.03;8.30;;;17.70;99.90;;;;;;6197587;23;20803;-75
2023/06/17 01:10:47;;;;;;;9.60;8.70;;;17.60;99.90;;;;;;6198694;23;20413;-76
2023/06/17 01:13:23;;;;;;;12.03;9.30;;;17.60;99.90;;;;;;6197620;23;20457;-75
2023/06/17 01:15:55;;;;;;;10.70;9.70;;;17.50;99.90;;;;;;6197088;23;20441;-77
2023/06/17 01:18:26;;;;;;;14.17;9.10;;;17.40;99.90;;;;;;6199381;23;20506;-76
2023/06/17 01:21:03;;;;;;;14.07;9.40;;;17.30;99.90;;;;;;6199472;23;20411;-75
2023/06/17 01:23:37;;;;;;;9.53;8.40;;;17.20;99.90;;;;;;6198428;23;20425;-75
2023/06/17 01:26:09;;;;;;;10.57;9.50;;;17.20;99.90;;;;;;6197898;23;20445;-76
2023/06/17 01:28:40;;;;;;;10.13;8.90;;;17.10;99.90;;;;;;6197084;23;20410;-75
2023/06/17 01:31:12;;;;;;;12.57;9.77;;;17.10;99.90;;;;;;6197313;23;20399;-76
2023/06/17 01:33:45;;;;;;;10.93;9.70;;;17.10;99.90;;;;;;6197166;23;20466;-76
2023/06/17 01:36:19;;;;;;;11.73;9.50;;;17.10;99.90;;;;;;6196421;23;20495;-76
2023/06/17 01:38:55;;;;;;;10.73;9.47;;;17.10;99.90;;;;;;6194179;23;20410;-75
2023/06/17 01:41:32;;;;;;;10.70;9.70;;;17.00;99.90;;;;;;6188506;23;20524;-75
2023/06/17 01:44:09;;;;;;;13.07;9.57;;;17.00;99.90;;;;;;6189611;23;20394;-77
2023/06/17 01:49:40;;;;;;;13.50;9.40;;;16.50;99.90;;;;;;6193638;23;20493;-76
2023/06/17 01:55:14;;;;;;;10.37;9.37;;;16.80;99.90;;;;;;6189531;23;20411;-76
2023/06/17 01:57:48;;;;;;;10.60;9.67;;;16.80;99.90;;;;;;6191009;23;20441;-75
2023/06/17 02:00:26;;;;;;;12.20;9.70;;;16.80;99.90;;;;;;6189662;23;20406;-75
2023/06/17 02:02:53;;;;;;;10.90;9.50;;;16.80;99.90;;;;;;6190513;23;20734;-77
2023/06/17 02:05:25;;;;;;;11.53;9.90;;;16.70;99.90;;;;;;6195810;23;20418;-75
2023/06/17 02:07:53;;;;;;;11.07;9.97;;;16.70;99.90;;;;;;6196164;23;20430;-74
2023/06/17 02:10:21;;;;;;;10.80;9.77;;;16.70;99.90;;;;;;6196031;23;20418;-75
2023/06/17 02:12:49;;;;;;;10.30;9.20;;;16.60;99.90;;;;;;6195794;23;20437;-76
2023/06/17 02:15:17;;;;;;;10.87;9.60;;;16.60;99.90;;;;;;6195703;23;20425;-75
2023/06/17 02:17:47;;;;;;;13.30;9.40;;;16.60;99.90;;;;;;6196015;23;20842;-76
2023/06/17 02:20:22;;;;;;;9.73;8.77;;;16.50;99.90;;;;;;6197737;23;20417;-76
2023/06/17 02:22:50;;;;;;;11.67;9.80;;;16.50;99.90;;;;;;6196834;23;20435;-76
2023/06/17 02:25:20;;;;;;;11.13;9.90;;;16.40;99.90;;;;;;6194275;23;20413;-77
2023/06/17 02:27:57;;;;;;;10.90;9.90;;;16.40;99.90;;;;;;6191105;23;20410;-75
2023/06/17 02:30:31;;;;;;;10.73;9.63;;;16.40;99.90;;;;;;6188285;23;20775;-75
2023/06/17 02:33:08;;;;;;;14.33;11.03;;;16.40;99.90;;;;;;6188710;23;20438;-76
2023/06/17 02:35:56;;;;;;;11.33;10.03;;;16.40;99.90;;;;;;6189297;23;20435;-75
2023/06/17 02:38:26;;;;;;;12.40;9.97;;;16.40;99.90;;;;;;6188728;23;20755;-76
2023/06/17 02:40:58;;;;;;;11.10;10.00;;;16.30;99.90;;;;;;6188935;23;20413;-75
2023/06/17 02:46:32;;;;;;;12.23;11.13;;;16.30;99.90;;;;;;6188375;23;20402;-75
2023/06/17 02:52:08;;;;;;;11.30;10.20;;;16.20;99.90;;;;;;6189415;23;20446;-76
2023/06/17 02:55:05;;;;;;;10.00;9.20;;;16.20;99.90;;;;;;6192771;23;20473;-75
2023/06/17 02:58:20;;;;;;;11.23;10.13;;;16.10;99.90;;;;;;6183453;23;20532;-75
2023/06/17 03:04:14;;;;;;;13.60;9.90;;;16.00;99.90;;;;;;6181541;23;20470;-76
2023/06/17 03:06:46;;;;;;;11.13;10.03;;;16.00;99.90;;;;;;6187429;23;20410;-75
2023/06/17 03:09:21;;;;;;;11.50;10.43;;;16.00;99.90;;;;;;6187121;23;20414;-75
2023/06/17 03:12:12;;;;;;;11.97;9.77;;;16.00;99.90;;;;;;6186339;23;20434;-76
2023/06/17 03:17:43;;;;;;;10.63;9.63;;;16.00;99.90;;;;;;6186628;23;20434;-75
2023/06/17 03:20:18;;;;;;;11.07;10.07;;;16.00;99.90;;;;;;6186872;23;20449;-76
2023/06/17 03:22:57;;;;;;;10.73;9.73;;;15.90;99.90;;;;;;6188113;23;20528;-76
2023/06/17 03:25:34;;;;;;;18.43;10.40;;;15.90;99.90;;;;;;6191843;23;20421;-75
2023/06/17 03:28:09;;;;;;;11.60;10.60;;;15.90;99.90;;;;;;6192393;23;20482;-76
2023/06/17 03:30:39;;;;;;;11.90;10.67;;;15.80;99.90;;;;;;6192045;23;20420;-76
2023/06/17 03:33:13;;;;;;;10.47;9.67;;;15.70;99.90;;;;;;6190927;23;20430;-76
2023/06/17 03:35:42;;;;;;;10.60;9.53;;;15.70;99.90;;;;;;6188490;23;20466;-75
2023/06/17 03:38:10;;;;;;;11.93;10.73;;;15.90;99.90;;;;;;6188439;23;20977;-76
2023/06/17 03:40:41;;;;;;;11.60;9.50;;;15.70;99.90;;;;;;6189461;23;20414;-76
2023/06/17 03:43:10;;;;;;;11.43;10.43;;;15.80;99.90;;;;;;6187593;23;20434;-76
2023/06/17 03:45:45;;;;;;;11.57;10.50;;;15.80;99.90;;;;;;6186115;23;20424;-76
2023/06/17 03:48:16;;;;;;;10.90;9.90;;;15.70;99.90;;;;;;6185807;23;20449;-76
2023/06/17 03:50:48;;;;;;;12.53;10.37;;;15.80;99.90;;;;;;6186610;23;20425;-77
2023/06/17 03:53:30;;;;;;;11.13;10.13;;;15.80;99.90;;;;;;6187984;23;20443;-77
2023/06/17 03:56:01;;;;;;;11.00;10.07;;;15.80;99.90;;;;;;6190665;23;20931;-76
2023/06/17 03:58:33;;;;;;;11.97;9.80;;;15.80;99.90;;;;;;6190636;23;21307;-76
2023/06/17 04:01:12;;;;;;;12.20;10.23;;;15.80;99.90;;;;;;6193308;23;20417;-78
2023/06/17 04:03:45;;;;;;;11.03;10.07;;;15.80;99.90;;;;;;6194048;23;20414;-77
2023/06/17 04:06:16;;;;;;;11.80;10.17;;;15.80;99.90;;;;;;6199215;23;20491;-76
2023/06/17 04:08:48;;;;;;;11.57;10.50;;;15.80;99.90;;;;;;6200179;23;20410;-77
2023/06/17 04:11:33;;;;;;;11.57;10.50;;;15.80;99.90;;;;;;6195984;23;20417;-77
2023/06/17 04:14:08;;;;;;;10.83;9.77;;;15.80;99.90;;;;;;6190697;23;20370;-77
2023/06/17 04:16:41;;;;;;;10.53;9.63;;;15.80;99.90;;;;;;6192807;23;20422;-78
2023/06/17 04:19:17;;;;;;;10.30;9.00;;;15.80;99.90;;;;;;6194062;23;20438;-76
2023/06/17 04:21:48;;;;;;;10.30;9.47;;;15.80;99.90;;;;;;6194250;23;20461;-77
2023/06/17 04:24:20;;;;;;;11.40;10.30;;;15.80;99.90;;;;;;6196096;23;20398;-77
2023/06/17 04:26:52;;;;;;;11.00;10.00;;;15.90;99.90;;;;;;6198744;23;20402;-76
2023/06/17 04:29:23;;;;;;;13.00;10.60;;;15.90;99.90;;;;;;6200137;23;20410;-77
2023/06/17 04:31:52;;;;;;;11.20;10.20;;;15.90;99.90;;;;;;6198892;23;20440;-76
2023/06/17 04:34:26;;;;;;;10.27;9.27;;;15.90;99.90;;;;;;6195361;23;20471;-76
2023/06/17 04:36:58;;;;;;;12.30;11.20;;;15.90;99.90;;;;;;6193530;23;20428;-78
2023/06/17 04:39:34;;;;;;;11.70;10.70;;;15.80;99.90;;;;;;6191731;23;20943;-75
2023/06/17 04:42:10;;;;;;;11.50;10.50;;;15.80;99.90;;;;;;6190645;23;20449;-76
2023/06/17 04:47:36;;;;;;;10.40;9.53;;;;;;;;;;6138026;23;20896;-77
2023/06/17 04:50:19;;;;;;;11.40;10.03;;;15.90;99.90;;;;;;6189730;23;20390;-76
2023/06/17 04:53:03;;;;;;;10.70;9.90;;;15.90;99.90;;;;;;6188789;23;20947;-76
2023/06/17 04:55:46;;;;;;;11.50;10.40;;;16.20;99.90;;;;;;6189058;23;20414;-76
2023/06/17 04:58:21;;;;;;;10.80;9.87;;;16.00;99.90;;;;;;6186787;23;20445;-76
2023/06/17 05:00:51;;;;;;;10.87;10.03;;;15.80;99.90;;;;;;6188822;23;20425;-76
2023/06/17 05:03:21;;;;;;;11.00;10.00;;;15.70;99.90;;;;;;6191199;23;20505;-77
2023/06/17 05:06:08;;;;;;;11.57;10.57;;;15.90;99.90;;;;;;6197485;23;20413;-76
2023/06/17 05:09:10;;;;;;;10.50;9.60;;;16.10;99.90;;;;;;6198922;23;20444;-77
2023/06/17 05:11:45;;;;;;;10.90;9.83;;;16.20;99.90;;;;;;6195105;23;21073;-76
2023/06/17 05:14:12;;;;;;;11.50;10.23;;;16.50;99.90;;;;;;6198287;23;20395;-76
2023/06/17 05:16:40;;;;;;;10.83;9.90;;;16.30;99.90;;;;;;6199136;23;20474;-76
2023/06/17 05:19:07;;;;;;;11.83;10.83;;;16.40;99.90;;;;;;6199163;23;20837;-76
2023/06/17 05:21:37;;;;;;;11.50;10.60;;;16.60;99.90;;;;;;6197376;23;20442;-75
2023/06/17 05:24:05;;;;;;;11.00;10.20;;;16.60;99.90;;;;;;6196978;23;20399;-76
2023/06/17 05:26:44;;;;;;;11.37;10.30;;;16.70;99.90;;;;;;6196349;23;20391;-76
2023/06/17 05:29:32;;;;;;;10.97;10.07;;;16.60;99.90;;;;;;6195883;23;20473;-77
2023/06/17 05:32:08;;;;;;;11.10;10.20;;;16.60;99.90;;;;;;6197113;23;20436;-76
2023/06/17 05:34:45;;;;;;;10.33;9.43;;;16.60;99.90;;;;;;6196721;23;20432;-77
2023/06/17 05:37:44;;;;;;;11.20;10.30;;;16.70;99.90;;;;;;6194540;23;20413;-76
2023/06/17 05:43:07;;;;;;;16.50;10.53;;;16.60;99.90;;;;;;6176529;23;20509;-77
2023/06/17 05:45:54;;;;;;;11.20;10.20;;;16.70;99.90;;;;;;6187689;23;20745;-76
2023/06/17 05:48:51;;;;;;;11.40;10.50;;;16.60;99.90;;;;;;6187659;23;20409;-76
2023/06/17 05:51:28;;;;;;;9.87;9.17;;;16.80;99.90;;;;;;6187438;23;20425;-78
2023/06/17 05:54:50;;;;;;;10.70;9.70;;;16.90;99.90;;;;;;6189284;23;20899;-76
2023/06/17 05:58:06;;;;;;;;;;;;;;;;;;;;;
2023/06/17 06:00:58;;;;;;;11.63;9.77;;;17.20;99.90;;;;;;6189059;23;20395;-77
2023/06/17 06:03:44;;;;;;;11.20;10.30;;;17.40;99.90;;;;;;6188880;23;20442;-76
2023/06/17 06:09:08;;;;;;;11.20;10.30;;;17.70;99.90;;;;;;6185887;23;20418;-77
2023/06/17 06:11:47;;;;;;;10.03;9.23;;;17.80;99.90;;;;;;6186733;23;20434;-76
2023/06/17 06:14:18;;;;;;;11.83;10.70;;;18.00;99.90;;;;;;6187184;23;20422;-75
2023/06/17 06:19:43;;;;;;;10.87;9.73;;;18.30;99.90;;;;;;6184178;23;20500;-76
2023/06/17 06:22:19;;;;;;;9.80;8.90;;;18.40;99.90;;;;;;6185982;23;20460;-76
2023/06/17 06:24:54;;;;;;;10.77;9.80;;;18.50;99.90;;;;;;6186408;23;20414;-76
2023/06/17 06:27:22;;;;;;;10.40;9.60;;;18.60;99.90;;;;;;6186533;23;20448;-77
2023/06/17 06:30:01;;;;;;;10.20;9.30;;;18.80;99.90;;;;;;6185255;23;20410;-77
2023/06/17 06:32:36;;;;;;;10.90;9.90;;;18.90;99.90;;;;;;6185449;23;20526;-77
2023/06/17 06:35:10;;;;;;;11.13;10.07;;;18.90;99.90;;;;;;6186172;23;20749;-75
2023/06/17 06:37:46;;;;;;;10.87;10.03;;;19.00;99.90;;;;;;6187731;23;20449;-76
2023/06/17 06:40:24;;;;;;;13.77;9.80;;;19.10;99.90;;;;;;6187490;23;20410;-76
2023/06/17 06:42:52;;;;;;;11.27;10.27;;;19.30;99.90;;;;;;6187024;23;20450;-77
2023/06/17 06:45:24;;;;;;;11.43;10.50;;;19.30;99.90;;;;;;6186714;23;20795;-76
2023/06/17 06:48:07;;;;;;;10.57;9.47;;;19.20;99.90;;;;;;6188306;23;20501;-77
2023/06/17 06:50:48;;;;;;;11.47;10.47;;;19.30;99.90;;;;;;6187126;23;20413;-77
2023/06/17 06:53:32;;;;;;;12.33;11.03;;;19.50;99.90;;;;;;6187739;23;20445;-77
2023/06/17 06:56:27;;;;;;;10.70;9.80;;;19.60;99.90;;;;;;6187627;23;20922;-75
2023/06/17 06:59:02;;;;;;;10.90;10.10;;;19.80;99.90;;;;;;6187516;23;20468;-77
2023/06/17 07:01:31;;;;;;;10.60;9.73;;;20.00;99.90;;;;;;6187098;23;20405;-77
2023/06/17 07:04:11;;;;;;;11.53;10.43;;;20.10;99.90;;;;;;6187390;23;20445;-77
2023/06/17 07:06:43;;;;;;;10.43;9.50;;;20.20;99.90;;;;;;6187678;23;20461;-77
2023/06/17 07:09:14;;;;;;;10.30;9.20;;;20.30;99.90;;;;;;6188195;23;20486;-76
2023/06/17 07:11:42;;;;;;;10.40;9.50;;;20.40;99.90;;;;;;6187796;23;20442;-77
2023/06/17 07:14:21;;;;;;;10.03;9.13;;;20.60;99.90;;;;;;6187045;23;20418;-77
2023/06/17 07:16:49;;;;;;;10.80;9.70;;;20.60;99.90;;;;;;6187261;23;20431;-77
2023/06/17 07:19:27;;;;;;;10.33;9.43;;;20.80;99.90;;;;;;6188173;23;20441;-76
2023/06/17 07:21:59;;;;;;;11.23;10.33;;;20.90;99.90;;;;;;6188096;23;20469;-78
2023/06/17 07:24:31;;;;;;;11.33;10.10;;;21.10;99.90;;;;;;6189028;23;20487;-76
2023/06/17 07:27:00;;;;;;;12.47;9.87;;;21.20;99.90;;;;;;6190580;23;20467;-77
2023/06/17 07:29:32;;;;;;;11.30;10.30;;;21.20;99.90;;;;;;6192589;23;20410;-76
2023/06/17 07:32:00;;;;;;;11.73;9.37;;;21.30;99.90;;;;;;6191518;23;20536;-78
2023/06/17 07:34:36;;;;;;;10.97;9.90;;;21.50;99.90;;;;;;6190836;23;20458;-77
2023/06/17 07:37:07;;;;;;;10.97;9.87;;;21.60;99.90;;;;;;6188659;23;20940;-78
2023/06/17 07:39:35;;;;;;;10.20;9.30;;;21.60;99.90;;;;;;6188323;23;20442;-78
2023/06/17 07:42:13;;;;;;;10.00;9.20;;;21.70;99.90;;;;;;6186965;23;20457;-77
2023/06/17 07:44:41;;;;;;;10.80;9.83;;;21.80;99.90;;;;;;6188379;23;20497;-78
2023/06/17 07:47:09;;;;;;;9.90;9.00;;;21.90;99.90;;;;;;6188582;23;20437;-77
2023/06/17 07:49:39;;;;;;;10.47;9.67;;;22.00;99.90;;;;;;6188036;23;20410;-77
2023/06/17 07:52:07;;;;;;;10.87;9.77;;;22.10;99.90;;;;;;6187446;23;20752;-77
2023/06/17 07:54:36;;;;;;;10.63;9.73;;;22.00;99.90;;;;;;6187824;23;20417;-76
2023/06/17 07:57:05;;;;;;;10.43;9.47;;;22.20;99.90;;;;;;6187330;23;20521;-77
2023/06/17 07:59:36;;;;;;;10.17;9.40;;;22.40;99.90;;;;;;6186887;23;20537;-76
2023/06/17 08:02:07;;;;;;;9.63;8.83;;;22.50;99.90;;;;;;6187223;23;20433;-76
2023/06/17 08:04:36;;;;;;;9.17;8.30;;;22.70;99.90;;;;;;6187257;23;20982;-78
2023/06/17 08:07:06;;;;;;;10.60;9.77;;;22.80;99.90;;;;;;6187226;23;20413;-77
2023/06/17 08:09:35;;;;;;;9.03;8.23;;;22.80;99.90;;;;;;6187968;23;20421;-77
2023/06/17 08:12:03;;;;;;;10.03;8.80;;;23.00;99.90;;;;;;6187728;23;20425;-76
2023/06/17 08:14:32;;;;;;;9.73;8.97;;;23.10;99.90;;;;;;6185488;23;20409;-79
2023/06/17 08:17:00;;;;;;;9.00;8.40;;;23.10;99.90;;;;;;6184913;23;20448;-77
2023/06/17 08:19:31;;;;;;;9.57;8.67;;;23.10;99.90;;;;;;6185474;23;20444;-78
2023/06/17 08:22:05;;;;;;;10.70;9.80;;;23.20;99.90;;;;;;6185214;23;20837;-75
2023/06/17 08:24:59;;;;;;;10.27;9.27;;;23.40;99.90;;;;;;6185460;23;20374;-77
2023/06/17 08:27:28;;;;;;;10.03;9.10;;;23.50;99.90;;;;;;6184980;23;20402;-77
2023/06/17 08:30:00;;;;;;;9.70;8.90;;;23.70;99.90;;;;;;6185057;23;20411;-78
2023/06/17 08:32:28;;;;;;;9.73;8.90;;;23.70;99.90;;;;;;6186655;23;20417;-76
2023/06/17 08:34:56;;;;;;;8.63;8.00;;;24.20;99.90;;;;;;6188103;23;20767;-77
2023/06/17 08:37:24;;;;;;;9.63;8.83;;;24.10;99.90;;;;;;6185649;23;20394;-76
2023/06/17 08:39:53;;;;;;;9.57;8.57;;;24.20;99.90;;;;;;6185844;23;21162;-77
2023/06/17 08:42:24;;;;;;;8.93;8.13;;;24.00;99.90;;;;;;6187727;23;20950;-76
2023/06/17 08:44:53;;;;;;;8.17;7.40;;;24.20;99.90;;;;;;6187582;23;20920;-77
2023/06/17 08:47:22;;;;;;;8.77;8.07;;;24.40;99.90;;;;;;6185779;23;20421;-75
2023/06/17 08:49:51;;;;;;;8.63;7.60;;;24.70;99.90;;;;;;6187167;23;20423;-77
2023/06/17 08:52:19;;;;;;;8.30;7.60;;;24.70;99.90;;;;;;6187676;23;20440;-76
2023/06/17 08:54:47;;;;;;;8.50;7.90;;;24.80;99.90;;;;;;6187337;23;20413;-76
2023/06/17 08:57:20;;;;;;;8.17;7.47;;;25.00;99.90;;;;;;6187295;23;20422;-78
2023/06/17 08:59:48;;;;;;;7.40;6.90;;;25.30;99.90;;;;;;6188009;23;20519;-77
2023/06/17 09:02:24;;;;;;;11.07;6.90;;;25.40;99.90;;;;;;6189816;23;20438;-77
2023/06/17 09:04:52;;;;;;;8.10;7.40;;;25.50;99.90;;;;;;6192438;23;20665;-78
2023/06/17 09:07:30;;;;;;;7.50;7.00;;;25.60;99.30;;;;;;6192340;23;20513;-77
2023/06/17 09:10:05;;;;;;;7.93;7.13;;;25.80;97.70;;;;;;6192917;23;20433;-75
2023/06/17 09:12:49;;;;;;;7.50;7.00;;;25.80;97.70;;;;;;6192596;23;20492;-77
2023/06/17 09:15:46;;;;;;;8.17;7.47;;;26.00;97.20;;;;;;6198621;23;20409;-78
2023/06/17 09:18:17;;;;;;;16.27;7.43;;;26.10;96.40;;;;;;6201585;23;20401;-77
2023/06/17 09:21:05;;;;;;;8.13;7.43;;;26.40;96.00;;;;;;6204019;23;20438;-78
2023/06/17 09:23:37;;;;;;;7.40;6.90;;;26.70;95.40;;;;;;6205139;23;20522;-78
2023/06/17 09:26:10;;;;;;;8.30;6.90;;;26.80;94.20;;;;;;6195016;23;20497;-76
2023/06/17 09:28:41;;;;;;;7.33;6.53;;;26.90;93.50;;;;;;6189380;23;20442;-77
2023/06/17 09:31:21;;;;;;;8.13;7.33;;;27.00;92.90;;;;;;6189359;23;20424;-78
2023/06/17 09:37:13;;;;;;;6.90;6.40;;;27.40;90.80;;;;;;6176724;23;20528;-78
2023/06/17 09:39:53;;;;;;;6.83;6.30;;;27.50;89.90;;;;;;6186944;23;20434;-78
2023/06/17 09:42:52;;;;;;;6.40;5.80;;;27.10;89.40;;;;;;6189419;23;20460;-79
2023/06/17 09:48:40;;;;;;;5.43;5.13;;;27.70;79.00;;;;;;6120386;23;20426;-77
2023/06/17 09:51:37;;;;;;;5.87;4.87;;;28.10;74.40;;;;;;6190367;23;20430;-78
2023/06/17 09:54:08;;;;;;;5.33;5.03;;;27.60;73.90;;;;;;6187399;23;20791;-79
2023/06/17 09:56:44;;;;;;;5.80;5.40;;;27.70;74.50;;;;;;6186649;23;20510;-76
2023/06/17 09:59:13;;;;;;;6.23;5.80;;;28.30;72.70;;;;;;6186613;23;20462;-77
2023/06/17 10:01:52;;;;;;;6.43;5.93;;;28.10;72.50;;;;;;6188244;23;20489;-78
2023/06/17 10:04:21;;;;;;;5.70;5.30;;;28.00;71.60;;;;;;6189688;23;20415;-77
2023/06/17 10:06:52;;;;;;;6.17;5.57;;;27.80;71.70;;;;;;6188834;23;20442;-77
2023/06/17 10:09:45;;;;;;;7.77;6.20;;;27.00;72.50;;;;;;6187698;23;20418;-79
2023/06/17 10:12:14;;;;;;;6.23;5.83;;;26.60;73.30;;;;;;6185369;23;20434;-77
2023/06/17 10:18:54;;;;;;;6.07;5.67;;;27.10;72.20;;;;;;6172755;23;20434;-78
2023/06/17 10:21:38;;;;;;;6.40;5.10;;;27.40;72.20;;;;;;6103963;23;20449;-79
2023/06/17 10:25:09;;;;;;;6.00;5.40;;;27.50;71.30;;;;;;6098915;23;20527;-78
2023/06/17 10:27:42;;;;;;;5.70;5.30;;;28.10;70.80;;;;;;6099228;23;20418;-77
2023/06/17 10:30:44;;;;;;;6.63;6.13;;;28.20;69.50;;;;;;6096296;23;20432;-77
2023/06/17 10:33:59;;;;;;;6.37;5.83;;;28.50;69.00;;;;;;6168137;23;20438;-77
2023/06/17 10:36:38;;;;;;;5.97;5.47;;;29.00;68.00;;;;;;6186999;23;20426;-77
2023/06/17 10:39:28;;;;;;;5.63;5.13;;;28.90;67.20;;;;;;6190561;23;20455;-79
2023/06/17 10:42:06;;;;;;;6.30;5.80;;;29.40;65.40;;;;;;6194116;23;20462;-76
2023/06/17 10:44:52;;;;;;;6.20;5.60;;;29.00;63.80;;;;;;6191562;23;20427;-77
2023/06/17 10:47:25;;;;;;;5.77;5.30;;;29.30;63.20;;;;;;6191910;23;20423;-78
2023/06/17 10:50:09;;;;;;;5.83;5.40;;;28.50;63.80;;;;;;6191134;23;20442;-77
2023/06/17 10:52:44;;;;;;;6.10;5.60;;;28.90;64.10;;;;;;6190418;23;20459;-77
2023/06/17 10:55:19;;;;;;;5.50;5.10;;;29.50;63.10;;;;;;6189593;23;20414;-77
2023/06/17 10:58:07;;;;;;;5.70;5.30;;;29.90;61.10;;;;;;6190742;23;20533;-79
2023/06/17 11:00:39;;;;;;;5.40;5.00;;;30.40;59.00;;;;;;6190332;23;20439;-78
2023/06/17 11:03:14;;;;;;;8.20;5.03;;;30.60;59.40;;;;;;6190528;23;20443;-76
2023/06/17 11:05:46;;;;;;;5.93;4.93;;;30.70;58.50;;;;;;6192968;23;20419;-80
2023/06/17 11:08:20;;;;;;;5.40;5.03;;;30.90;57.80;;;;;;6192453;23;20428;-79
2023/06/17 11:10:52;;;;;;;6.13;5.00;;;31.00;56.20;;;;;;6191420;23;20390;-78
2023/06/17 11:13:23;;;;;;;5.80;5.40;;;30.10;57.60;;;;;;6193967;23;20575;-79
2023/06/17 11:15:57;;;;;;;5.57;5.13;;;30.60;57.60;;;;;;6188914;23;20451;-77
2023/06/17 11:18:35;;;;;;;5.80;5.40;;;30.50;55.50;;;;;;6191532;23;20506;-78
2023/06/17 11:21:11;;;;;;;5.90;5.40;;;29.90;55.40;;;;;;6191451;23;20444;-78
2023/06/17 11:23:57;;;;;;;6.40;5.30;;;30.10;56.40;;;;;;6192237;23;20464;-77
2023/06/17 11:26:27;;;;;;;5.27;4.97;;;30.20;56.20;;;;;;6195917;23;20730;-77
2023/06/17 11:28:56;;;;;;;5.60;5.20;;;30.80;55.20;;;;;;6192045;23;20415;-77
2023/06/17 11:31:26;;;;;;;6.53;5.57;;;30.60;54.40;;;;;;6187229;23;20488;-81
2023/06/17 11:33:59;;;;;;;5.67;5.27;;;;;;;;;;6192747;23;20439;-79
2023/06/17 11:36:27;;;;;;;5.73;5.30;;;;;;;;;;6192668;23;21002;-76
2023/06/17 11:38:57;;;;;;;5.00;4.70;;;;;;;;;;6192606;23;20448;-78
2023/06/17 11:41:25;;;;;;;5.10;4.80;;;;;;;;;;6192957;23;20506;-78
2023/06/17 11:43:53;;;;;;;5.70;5.30;;;;;;;;;;6193649;23;20476;-77
2023/06/17 11:46:21;;;;;;;4.97;4.67;;;;;;;;;;6191751;23;20445;-78
2023/06/17 11:48:49;;;;;;;5.23;4.93;;;;;;;;;;6193635;23;20963;-77
2023/06/17 11:51:17;;;;;;;5.67;5.17;;;;;;;;;;6196358;23;20433;-77
2023/06/17 11:53:46;;;;;;;5.43;5.07;;;;;;;;;;6194805;23;20419;-77
2023/06/17 11:59:14;;;;;;;4.90;4.50;;;;;;;;;;6185703;23;20403;-79
2023/06/17 12:01:56;;;;;;;4.90;4.60;;;;;;;;;;6191272;23;20517;-77
2023/06/17 12:04:29;;;;;;;5.20;4.70;;;;;;;;;;6190796;23;20452;-76
2023/06/17 12:06:56;;;;;;;5.37;4.93;;;;;;;;;;6189018;23;20440;-78
2023/06/17 12:09:24;;;;;;;5.30;4.80;;;;;;;;;;6188587;23;20461;-77
2023/06/17 12:11:56;;;;;;;5.87;5.40;;;;;;;;;;6187694;23;20487;-78
2023/06/17 12:14:25;;;;;;;5.60;5.10;;;;;;;;;;6190258;23;20378;-78
2023/06/17 12:16:53;;;;;;;5.10;4.70;;;;;;;;;;6188647;23;20750;-75
2023/06/17 12:19:24;;;;;;;4.73;4.43;;;;;;;;;;6188243;23;20814;-77
2023/06/17 12:21:56;;;;;;;5.83;5.23;;;;;;;;;;6188646;23;20434;-78
2023/06/17 12:24:24;;;;;;;7.63;6.20;;;;;;;;;;6193951;23;20417;-77
2023/06/17 12:26:53;;;;;;;4.97;4.60;;;;;;;;;;6196189;23;20414;-77
2023/06/17 12:29:25;;;;;;;5.17;4.77;;;;;;;;;;6198524;23;20420;-78
2023/06/17 12:31:57;;;;;;;5.13;4.83;;;;;;;;;;6192965;23;20747;-78
2023/06/17 12:34:25;;;;;;;5.97;5.47;;;;;;;;;;6191331;23;20410;-79
2023/06/17 12:36:55;;;;;;;4.90;4.50;;;;;;;;;;6189051;23;21088;-79
2023/06/17 12:39:34;;;;;;;5.10;4.70;;;;;;;;;;6191403;23;20417;-77
2023/06/17 12:42:02;;;;;;;5.47;5.03;;;;;;;;;;6187786;23;20909;-77
2023/06/17 12:44:32;;;;;;;4.90;4.60;;;;;;;;;;6190228;23;20433;-77
2023/06/17 12:47:02;;;;;;;5.60;5.07;;;;;;;;;;6190595;23;20417;-77
2023/06/17 12:49:30;;;;;;;4.80;4.40;;;;;;;;;;6191065;23;20432;-78
2023/06/17 12:51:57;;;;;;;5.47;5.07;;;;;;;;;;6192355;23;20410;-77
2023/06/17 12:54:26;;;;;;;5.27;4.77;;;;;;;;;;6195241;23;20433;-79
2023/06/17 12:56:57;;;;;;;5.00;4.70;;;;;;;;;;6196246;23;20430;-77
2023/06/17 12:59:27;;;;;;;4.80;4.43;;;;;;;;;;6196598;23;20472;-78
2023/06/17 13:01:55;;;;;;;4.57;4.17;;;;;;;;;;6191341;23;20452;-76
2023/06/17 13:04:24;;;;;;;5.40;5.10;;;;;;;;;;6189873;23;20428;-77
2023/06/17 13:06:53;;;;;;;4.30;4.00;;;;;;;;;;6189029;23;20431;-77
2023/06/17 13:09:21;;;;;;;5.00;4.60;;;;;;;;;;6190855;23;20415;-78
2023/06/17 13:11:53;;;;;;;4.63;4.33;;;;;;;;;;6190977;23;20430;-77
2023/06/17 13:14:24;;;;;;;5.03;4.70;;;;;;;;;;6192558;23;20419;-76
2023/06/17 13:16:52;;;;;;;5.10;4.60;;;;;;;;;;6193325;23;20414;-77
2023/06/17 13:19:19;;;;;;;4.90;4.50;;;;;;;;;;6192697;23;20423;-76
2023/06/17 13:21:49;;;;;;;4.73;4.40;;;;;;;;;;6193779;23;20446;-75
2023/06/17 13:24:18;;;;;;;4.93;4.47;;;;;;;;;;6195411;23;20433;-78
2023/06/17 13:26:46;;;;;;;5.20;4.90;;;;;;;;;;6195669;23;20407;-78
2023/06/17 13:29:14;;;;;;;5.33;4.90;;;;;;;;;;6194720;23;20431;-77
2023/06/17 13:31:46;;;;;;;5.00;4.50;;;;;;;;;;6191944;23;20430;-76
2023/06/17 13:34:14;;;;;;;5.30;4.90;;;;;;;;;;6193138;23;20411;-77
2023/06/17 13:36:45;;;;;;;5.20;4.80;;;;;;;;;;6195678;23;20411;-78
2023/06/17 13:39:14;;;;;;;5.70;5.30;;;;;;;;;;6201151;23;20384;-75
2023/06/17 13:41:42;;;;;;;5.07;4.57;;;;;;;;;;6194659;23;20443;-75
2023/06/17 13:44:12;;;;;;;6.17;5.40;;;;;;;;;;6190874;23;20417;-77
2023/06/17 13:46:41;;;;;;;5.23;4.83;;;31.80;44.00;;;;;;6192652;23;20407;-77
2023/06/17 13:49:09;;;;;;;6.33;4.70;;;31.60;46.20;;;;;;6193736;23;20460;-76
2023/06/17 13:51:38;;;;;;;5.43;5.13;;;32.30;46.10;;;;;;6192954;23;20479;-77
2023/06/17 13:54:10;;;;;;;5.03;4.53;;;32.00;45.30;;;;;;6192473;23;20483;-79
2023/06/17 13:56:42;;;;;;;5.27;4.60;;;32.70;45.00;;;;;;6192808;23;20466;-77
2023/06/17 13:59:11;;;;;;;5.37;4.87;;;33.30;43.10;;;;;;6190809;23;20411;-76
2023/06/17 14:01:39;;;;;;;4.70;4.30;;;33.00;44.00;;;;;;6193018;23;20453;-75
2023/06/17 14:04:13;;;;;;;4.77;4.47;;;32.70;44.00;;;;;;6196727;23;20591;-78
2023/06/17 14:06:41;;;;;;;4.90;4.50;;;33.10;43.70;;;;;;6198543;23;20505;-78
2023/06/17 14:09:09;;;;;;;6.00;5.60;;;31.10;44.90;;;;;;6192541;23;20417;-76
2023/06/17 14:11:38;;;;;;;6.70;5.47;;;31.30;45.90;;;;;;6195514;23;20418;-75
2023/06/17 14:14:06;;;;;;;5.13;4.70;;;31.00;45.50;;;;;;6196522;23;20410;-78
2023/06/17 14:16:34;;;;;;;4.70;4.30;;;32.10;44.60;;;;;;6196899;23;20423;-76
2023/06/17 14:19:01;;;;;;;6.03;5.33;;;32.10;44.50;;;;;;6196616;23;20399;-76
2023/06/17 14:21:30;;;;;;;5.77;5.27;;;32.20;43.10;;;;;;6198599;23;20876;-76
2023/06/17 14:24:04;;;;;;;5.40;5.00;;;32.10;44.40;;;;;;6199219;23;20478;-75
2023/06/17 14:26:33;;;;;;;5.70;5.23;;;31.70;44.70;;;;;;6200246;23;20504;-77
2023/06/17 14:29:03;;;;;;;5.40;5.00;;;32.00;44.60;;;;;;6200554;23;20399;-75
2023/06/17 14:31:31;;;;;;;6.53;5.80;;;31.40;44.80;;;;;;6196600;23;20417;-79
2023/06/17 14:34:02;;;;;;;5.40;5.00;;;31.90;45.20;;;;;;6194820;23;20424;-78
2023/06/17 14:36:31;;;;;;;6.40;5.80;;;32.00;45.10;;;;;;6197268;23;20441;-76
2023/06/17 14:39:04;;;;;;;7.13;5.27;;;32.70;44.50;;;;;;6195753;23;20445;-76
2023/06/17 14:41:32;;;;;;;5.63;5.17;;;31.90;44.40;;;;;;6188750;23;20446;-76